Nombre de vues uniques : 2365 | Nombre de vues : 1823

Classement Open 24h

Classement Course

Chercher un coureur


Classement provisoire

Position Dossard Nom Prénom Sexe Année
Naissance
Catégorie Position dans
sa catégorie
Distance Temps Vitesse approx.
1 133 POLIN Benjamin M 1994 Seniors 1e 100 km 06:29:16 15.41 km/h
2 101 KERBOURCH Jocelyn M 1980 M1 1e 100 km 06:38:19 15.06 km/h
3 57 BETRON Adrien M 1989 M0 1e 100 km 06:51:49 14.57 km/h
4 3 BRUMELOT Marie-Ange F 1993 Seniors 2e 100 km 06:56:54 14.39 km/h
5 142 TURMO Vincent M 1995 Seniors 3e 100 km 07:00:17 14.28 km/h
6 64 CHAMBAUDRY Yannick M 1976 M2 1e 100 km 07:39:43 13.05 km/h
7 153 MARTINACHE Arnaud M 1971 M3 1e 100 km 07:48:43 12.80 km/h
8 10 LE BEHEREC Sophie F 1976 M2 2e 100 km 07:51:49 12.72 km/h
9 22 THÉVENIN-LEBRAN Louise-Marie F 1998 Seniors 4e 100 km 07:54:32 12.64 km/h
10 20 SCHMITT Nathalie F 1976 M2 3e 100 km 08:00:28 12.49 km/h
11 102 KOPER Julien M 1984 M1 2e 100 km 08:07:10 12.32 km/h
12 143 VALLOIS Nicolas M 1985 M0 2e 100 km 08:28:07 11.81 km/h
13 55 BECQUET Clément M 1987 M0 3e 100 km 08:41:00 11.52 km/h
14 11 LE MOING Ariane F 1977 M2 4e 100 km 08:46:58 11.39 km/h
15 24 VERRIER Aurelie F 1988 M0 4e 100 km 08:51:06 11.30 km/h
16 141 STOFER Joel M 1982 M1 3e 100 km 08:51:35 11.29 km/h
17 87 FUSIL Eric M 1975 M2 5e 100 km 08:52:12 11.27 km/h
18 84 FORTES Alexandrino M 1980 M1 4e 100 km 08:56:10 11.19 km/h
19 81 EVRAD Claude M 1975 M2 6e 100 km 08:57:30 11.16 km/h
20 123 MASSELOT Camille M 2002 Espoirs 1e 100 km 08:59:58 11.11 km/h
21 9 GELLÉ Emmie F 1974 M3 2e 100 km 09:12:54 10.85 km/h
22 65 CHARTIER Thomas M 1999 Seniors 5e 100 km 09:14:52 10.81 km/h
23 137 SCHLESINGER Thibaud M 1999 Seniors 6e 100 km 09:27:28 10.57 km/h
24 6 DECHAMP BADOLLE Carole F 1971 M3 3e 100 km 09:29:47 10.53 km/h
25 78 DETOURBE Jean-Adrien M 2000 Seniors 7e 100 km 09:31:59 10.49 km/h
26 103 KRUPA Christophe M 1980 M1 5e 100 km 09:36:30 10.41 km/h
27 121 MALLET Kévin M 1989 M0 5e 100 km 09:36:44 10.40 km/h
28 51 ALLAIN Laurent M 1965 M4 1e 100 km 09:38:16 10.38 km/h
29 19 RABEUF Séverine F 1975 M2 7e 100 km 09:47:36 10.21 km/h
30 104 LAFOUGERE Sebastien M 1983 M1 6e 100 km 09:49:03 10.19 km/h
31 67 DEBOFFE François M 1987 M0 6e 100 km 09:53:42 10.11 km/h
32 115 LESPARRE David M 1984 M1 7e 100 km 09:54:13 10.10 km/h
33 109 LEFÉVÈRE Michael M 1989 M0 7e 100 km 09:56:37 10.06 km/h
34 119 LOUIS Cedric M 1981 M1 8e 100 km 09:56:58 10.05 km/h
35 2 BOURGOING Nathalie F 1968 M4 2e 100 km 10:03:11 9.95 km/h
36 113 LEMPEREUR Jean M 1973 M3 4e 100 km 10:14:25 9.77 km/h
37 85 FRAPPART Clément M 2004 Espoirs 2e 100 km 10:14:59 9.76 km/h
38 72 DELEU Dominique M 1964 M5 1e 100 km 10:19:16 9.69 km/h
39 138 SIDOISNE Gregory M 1982 M1 9e 100 km 10:28:07 9.55 km/h
40 95 HEERNAERT Sebastien M 1979 M2 8e 100 km 10:31:13 9.51 km/h
41 13 LYLON Debora F 1973 M3 5e 100 km 10:36:29 9.43 km/h
42 129 NOEL David M 1970 M3 6e 100 km 10:37:40 9.41 km/h
43 125 MENDYKA Nicolas M 1974 M3 7e 100 km 10:42:48 9.33 km/h
44 106 LE BRETON Andrew M 2002 Espoirs 3e 100 km 10:46:05 9.29 km/h
45 61 BOYER Nicolas M 1976 M2 9e 100 km 10:50:02 9.23 km/h
46 98 IOOS Maxime M 1975 M2 10e 100 km 10:50:42 9.22 km/h
47 17 PRINCE Camille F 1995 Seniors 8e 100 km 10:53:11 9.19 km/h
48 63 BRICHE Bruno M 1970 M3 8e 100 km 10:58:12 9.12 km/h
49 1 BOIRON Sophie F 1964 M5 2e 100 km 11:08:05 8.98 km/h
50 83 FLAMMIER Franck M 1974 M3 9e 100 km 11:11:20 8.94 km/h
51 82 FERNO Geoffrey M 1980 M1 10e 100 km 11:15:07 8.89 km/h
52 77 DESCAMPS Damien M 1969 M4 3e 100 km 11:16:36 8.87 km/h
53 157 HUBAUT Alexandre M 1985 M0 8e 100 km 11:17:39 8.85 km/h
54 7 DELBARRE Lise F 1975 M2 11e 100 km 11:19:22 8.83 km/h
55 93 GRUNY Benoît M 1979 M2 12e 100 km 11:25:22 8.75 km/h
56 122 MARTIN David M 1977 M2 13e 100 km 11:26:36 8.74 km/h
57 76 DESCAMPS Sylvain M 1970 M3 10e 100 km 11:27:01 8.73 km/h
58 56 BERTIN Robert M 1959 M6 1e 100 km 11:27:50 8.72 km/h
59 131 PIERRON Georges M 1975 M2 14e 100 km 11:32:13 8.67 km/h
60 79 DUBOIS Marc M 1961 M5 3e 100 km 11:32:37 8.66 km/h
61 139 SOTTIAU Julien M 1983 M1 11e 100 km 11:34:44 8.64 km/h
62 54 BEAUMONT Thierry M 1962 M5 4e 100 km 11:37:36 8.60 km/h
63 59 BLONDIAUX Jean-Baptiste M 1999 Seniors 9e 100 km 11:40:13 8.57 km/h
64 127 NIMAIL Mathieu M 1997 Seniors 10e 100 km 11:40:58 8.56 km/h
65 15 MINEBOIS Priscillia F 1982 M1 12e 100 km 11:47:34 8.48 km/h
66 116 LHOIR Joffrey M 1975 M2 15e 100 km 11:48:57 8.46 km/h
67 60 BOURCIER Pascal M 1971 M3 11e 100 km 11:52:19 8.42 km/h
68 70 DELEPINE Bertrand M 1982 M1 13e 100 km 11:52:20 8.42 km/h
69 150 VITEAU Thomas M 1972 M3 12e 100 km 11:58:57 8.35 km/h
70 99 JACQUELET Antoine M 1993 Seniors 11e 100 km 12:01:20 8.32 km/h
71 62 BRICE Frederic M 1968 M4 4e 100 km 12:07:55 8.24 km/h
72 58 BISET Pascal M 1969 M4 5e 100 km 12:09:42 8.22 km/h
73 126 MONNIER Alexandre M 1981 M1 14e 100 km 12:11:35 8.20 km/h
74 108 LECOCQ Sébastien M 1977 M2 16e 100 km 12:11:38 8.20 km/h
75 148 VANRYSSEL Matthieu M 1978 M2 17e 100 km 12:22:33 8.08 km/h
76 154 FAES Damien M 1986 M0 9e 100 km 12:22:45 8.08 km/h
77 124 MATHIEU Stéphane M 1972 M3 13e 100 km 12:23:43 8.07 km/h
78 89 GIRAUD Vincent M 1967 M4 6e 100 km 12:23:45 8.07 km/h
79 118 LIERMANN Christophe M 1973 M3 14e 100 km 12:28:12 8.02 km/h
80 135 ROÏK Christian M 1962 M5 5e 100 km 12:34:53 7.95 km/h
81 92 GRASSET Alain M 1951 M7 1e 100 km 12:38:37 7.91 km/h
82 151 WACKERS Emmanuel M 1971 M3 15e 100 km 12:44:22 7.85 km/h
83 147 VANHOUTE Gaetan M 1984 M1 15e 100 km 12:49:12 7.80 km/h
84 152 MUTELET Olivier M 1969 M4 7e 100 km 12:51:03 7.78 km/h
85 88 GAIGNEUR Dimitri M 1975 M2 18e 100 km 12:56:47 7.72 km/h
86 66 COLLOMBET Herve M 1966 M4 8e 100 km 12:57:28 7.72 km/h
87 112 LEMOINE Sebastien M 1983 M1 16e 100 km 13:05:00 7.64 km/h
88 25 DUMANGE Delphine F 1976 M2 19e 100 km 13:19:04 7.51 km/h
89 12 LE SOURNE Laure F 1970 M3 16e 100 km 13:23:23 7.47 km/h
90 86 FREMAUX Thomas M 1977 M2 20e 100 km 13:27:45 7.43 km/h
91 90 GOY Cyril M 1971 M3 17e 100 km 13:32:58 7.38 km/h
92 156 LABIS Matthieu M 1987 M0 10e 100 km 13:33:58 7.37 km/h
93 18 PYTHON Maïko F 1965 M4 9e 100 km 13:39:03 7.33 km/h
94 136 ROISNE Jean-François M 1950 M7 2e 100 km 13:47:32 7.25 km/h
95 71 DELESTREZ Thibaut M 2004 Espoirs 4e 100 km 13:47:34 7.25 km/h
96 100 JULLIEN Dominique M 1961 M5 6e 100 km 13:48:34 7.24 km/h
97 111 LEHOUX Corentin M 1992 Seniors 12e 100 km 13:53:48 7.20 km/h
98 145 VANDEWINCKEL Laurent M 1963 M5 7e 94.3 km 13:26:45 6.94 km/h
99 73 DENYS Antoine M 1994 Seniors 13e 77.1 km 08:56:39 8.20 km/h
100 91 GRANJON Nicolas M 1979 M2 21e 67.9 km 04:51:40 13.71 km/h
101 114 LEPERS Thomas M 1982 M1 17e 67.9 km 04:54:18 13.59 km/h
102 117 LHUILLIER Patrick M 1966 M4 10e 67.9 km 05:19:09 12.53 km/h
103 107 LE ROUX Simon M 1995 Seniors 14e 67.9 km 06:21:01 10.50 km/h
104 110 LEGRAIN Luc M 1974 M3 18e 67.9 km 06:33:04 10.18 km/h
105 105 LE BRETON Kenny M 2002 Espoirs 5e 67.9 km 08:03:08 8.28 km/h
106 68 DELACOURTE Yvan M 1968 M4 11e 67.9 km 08:20:06 8.00 km/h
107 8 DU ROURE Jeanne F 1999 Seniors 15e 67.9 km 08:54:39 7.48 km/h
108 149 VILLENEUVE Yanis M 2004 Espoirs 6e 67.9 km 10:21:30 6.44 km/h
109 134 RATAUD Julien M 1984 M1 18e 62.1 km 06:12:23 9.67 km/h
110 140 SOULIER Nicolas M 1984 M1 19e 62.1 km 07:22:28 8.14 km/h
111 155 ANDREWS Roland M 1999 Seniors 16e 62.1 km 07:26:52 8.06 km/h
112 128 NISON Julien M 1988 M0 11e 51.1 km 03:25:25 13.63 km/h
113 97 HUGOT Vincent M 1976 M2 22e 51.1 km 06:19:02 7.39 km/h
114 80 DUCROCQ Vincent M 1961 M5 8e 51.1 km 12:31:23 3.73 km/h
115 74 DEPOYANT Cyril M 1978 M2 23e 35.7 km 02:38:58 12.58 km/h
116 69 DELASSUS Regis M 1967 M4 12e 35.7 km 04:38:03 7.19 km/h
117 16 MOYNOT Cécile F 1976 M2 24e 30 km 02:23:42 11.13 km/h